Meath Environmental Platform

Observations for Trim Patrick St

Time AQI Temp °C Hum % Pres Pa CO μg/m³ H₂S μg/m³ NO μg/m³ NO₂ μg/m³ O₃ μg/m³ SO₂ μg/m³ PM1 μg/m³ PM2.5 μg/m³ PM10 μg/m³
Friday 7 August 2026
11:15 1 26.5 39 68,955 0 0 1.56 9.35 79.35 8.78 2.86 8.68 9.55
11:14 1 26.7 38 68,947 0 0 1.61 7.54 64.85 8.04 3.71 10.31 11.34
11:13 1 26.8 39 68,967 0 0 1.48 7.33 79.17 9.44 3.71 10.28 11.31
11:11 1 27 38 68,955 0 0 1.4 5.74 72.4 9.64 3.71 9.56 10.51
11:10 1 27.2 37 68,977 0 0 1.38 8.92 69.87 8.56 2.86 9.58 10.54
11:09 1 27.3 38 68,977 0 0 1.39 7.58 70.49 9.12 2.86 9.57 10.53
11:08 1 27.4 38 68,973 0 0 1.43 6.52 69.65 8.92 2.86 9.57 10.53
11:07 1 27.5 40 68,995 0 0 1.25 8.74 69.4 8.84 3.71 10.2 11.22
11:06 1 27.5 38 68,995 0 0 1.32 5.95 71.57 9.76 3.71 9.51 10.46
11:05 1 27.5 38 68,995 0 0 1.31 4.64 71.82 9.7 3.71 9.52 10.47
11:04 1 27.5 38 69,023 0 0 1.31 10.42 68.66 8.44 3.71 10.36 11.4
11:03 1 27.6 39 69,027 0 0 1.14 3.08 65.76 9.88 2.86 7.87 8.66
11:02 1 27.7 37 69,035 0 0 1.17 5.22 54.21 9.11 2 8.82 9.7
11:01 1 27.8 37 69,010 0 0 1.17 9.42 71.04 9.47 2 8.83 9.71
11:00 1 27.9 37 69,039 0 0 1.13 3.52 32.01 8.9 4.57 10.38 11.42
10:59 1 28 39 69,051 0 0 1.09 6.33 44.73 9.5 2.86 8.66 9.53
10:58 1 28 40 69,031 0 0 1.08 9.6 66.22 8.29 3.71 9.36 10.3
10:57 1 27.9 40 69,031 0 0 1.1 9.41 68.31 9.34 3.71 9.39 10.33
10:56 1 27.9 38 69,029 0 0 1.12 8 69.78 9.62 3.71 10.33 11.36
10:54 1 27.7 40 69,010 0 0 1.11 8.6 66 9.29 2.86 8.63 9.5